sensor_id;sensor_type;location;lat;lon;timestamp;P1;P2;P0
73148;PMS7003;61346;48.930;2.266;2022-07-01T00:00:02;1.00;1.00;1.00
73148;PMS7003;61346;48.930;2.266;2022-07-01T00:02:28;2.00;2.00;1.00
73148;PMS7003;61346;48.930;2.266;2022-07-01T00:04:54;1.00;1.00;1.00
73148;PMS7003;61346;48.930;2.266;2022-07-01T00:07:19;1.00;1.00;1.00
73148;PMS7003;61346;48.930;2.266;2022-07-01T00:09:45;2.50;1.50;1.00
73148;PMS7003;61346;48.930;2.266;2022-07-01T00:12:10;2.00;2.00;2.00
73148;PMS7003;61346;48.930;2.266;2022-07-01T00:14:36;1.00;1.00;1.00
73148;PMS7003;61346;48.930;2.266;2022-07-01T00:17:01;1.00;1.00;1.00
73148;PMS7003;61346;48.930;2.266;2022-07-01T00:19:27;1.00;1.00;1.00
73148;PMS7003;61346;48.930;2.266;2022-07-01T00:21:52;3.00;3.00;2.50
73148;PMS7003;61346;48.930;2.266;2022-07-01T00:24:20;2.00;2.00;2.00
73148;PMS7003;61346;48.930;2.266;2022-07-01T00:26:46;2.00;2.00;1.25
73148;PMS7003;61346;48.930;2.266;2022-07-01T00:29:11;3.50;1.75;1.50
73148;PMS7003;61346;48.930;2.266;2022-07-01T00:31:36;2.25;2.00;2.00
73148;PMS7003;61346;48.930;2.266;2022-07-01T00:34:02;3.00;3.00;2.25
73148;PMS7003;61346;48.930;2.266;2022-07-01T00:36:28;2.75;2.00;1.75
73148;PMS7003;61346;48.930;2.266;2022-07-01T00:38:53;2.00;2.00;1.25
73148;PMS7003;61346;48.930;2.266;2022-07-01T00:41:19;2.75;2.00;1.50
73148;PMS7003;61346;48.930;2.266;2022-07-01T00:43:44;2.00;2.00;1.00
73148;PMS7003;61346;48.930;2.266;2022-07-01T00:46:10;3.00;3.00;2.75
73148;PMS7003;61346;48.930;2.266;2022-07-01T00:48:36;3.25;1.00;1.00
73148;PMS7003;61346;48.930;2.266;2022-07-01T00:51:02;2.00;2.00;2.00
73148;PMS7003;61346;48.930;2.266;2022-07-01T00:53:28;2.00;2.00;2.00
73148;PMS7003;61346;48.930;2.266;2022-07-01T00:55:54;3.00;3.00;3.00
73148;PMS7003;61346;48.930;2.266;2022-07-01T00:58:20;3.00;3.00;2.25
73148;PMS7003;61346;48.930;2.266;2022-07-01T01:00:45;3.00;3.00;3.00
73148;PMS7003;61346;48.930;2.266;2022-07-01T01:03:10;3.00;3.00;2.00
73148;PMS7003;61346;48.930;2.266;2022-07-01T01:05:37;3.00;3.00;2.00
73148;PMS7003;61346;48.930;2.266;2022-07-01T01:08:03;2.00;2.00;2.00
73148;PMS7003;61346;48.930;2.266;2022-07-01T01:10:30;2.50;2.50;2.00
73148;PMS7003;61346;48.930;2.266;2022-07-01T01:12:56;2.75;2.00;2.00
73148;PMS7003;61346;48.930;2.266;2022-07-01T01:15:22;4.00;3.00;2.00
73148;PMS7003;61346;48.930;2.266;2022-07-01T01:17:49;2.00;2.00;2.00
73148;PMS7003;61346;48.930;2.266;2022-07-01T01:20:18;4.00;2.00;2.00
73148;PMS7003;61346;48.930;2.266;2022-07-01T01:22:44;3.25;2.75;2.75
73148;PMS7003;61346;48.930;2.266;2022-07-01T01:25:14;4.50;3.00;3.00
73148;PMS7003;61346;48.930;2.266;2022-07-01T01:27:40;3.00;3.00;2.75
73148;PMS7003;61346;48.930;2.266;2022-07-01T01:30:06;4.25;4.25;3.00
73148;PMS7003;61346;48.930;2.266;2022-07-01T01:32:35;5.50;4.00;3.50
73148;PMS7003;61346;48.930;2.266;2022-07-01T01:35:01;4.25;4.25;3.25
73148;PMS7003;61346;48.930;2.266;2022-07-01T01:37:27;4.00;4.00;3.00
73148;PMS7003;61346;48.930;2.266;2022-07-01T01:39:52;2.50;2.50;2.50
73148;PMS7003;61346;48.930;2.266;2022-07-01T01:42:18;3.75;3.75;3.00
73148;PMS7003;61346;48.930;2.266;2022-07-01T01:44:44;5.00;3.75;3.00
73148;PMS7003;61346;48.930;2.266;2022-07-01T01:47:09;3.00;3.00;2.00
73148;PMS7003;61346;48.930;2.266;2022-07-01T01:49:34;4.75;3.75;3.00
73148;PMS7003;61346;48.930;2.266;2022-07-01T01:52:00;3.00;2.00;2.00
73148;PMS7003;61346;48.930;2.266;2022-07-01T01:54:26;2.50;2.50;2.25
73148;PMS7003;61346;48.930;2.266;2022-07-01T01:56:51;3.50;3.50;2.00
73148;PMS7003;61346;48.930;2.266;2022-07-01T01:59:17;4.00;4.00;3.00
73148;PMS7003;61346;48.930;2.266;2022-07-01T02:01:43;2.25;2.25;2.00
73148;PMS7003;61346;48.930;2.266;2022-07-01T02:04:09;3.75;3.75;3.00
73148;PMS7003;61346;48.930;2.266;2022-07-01T02:06:34;3.25;3.25;3.25
73148;PMS7003;61346;48.930;2.266;2022-07-01T02:09:00;2.00;2.00;2.00
73148;PMS7003;61346;48.930;2.266;2022-07-01T02:11:25;3.00;3.00;2.50
73148;PMS7003;61346;48.930;2.266;2022-07-01T02:13:51;4.25;3.25;2.50
73148;PMS7003;61346;48.930;2.266;2022-07-01T02:16:16;4.00;3.00;2.75
73148;PMS7003;61346;48.930;2.266;2022-07-01T02:18:42;3.00;3.00;2.25
73148;PMS7003;61346;48.930;2.266;2022-07-01T02:21:07;5.50;3.50;3.00
73148;PMS7003;61346;48.930;2.266;2022-07-01T02:23:32;3.50;3.50;3.00
73148;PMS7003;61346;48.930;2.266;2022-07-01T02:25:58;6.50;3.50;3.50
73148;PMS7003;61346;48.930;2.266;2022-07-01T02:28:23;4.00;3.25;3.25
73148;PMS7003;61346;48.930;2.266;2022-07-01T02:30:49;4.00;4.00;3.75
73148;PMS7003;61346;48.930;2.266;2022-07-01T02:33:14;5.50;5.50;3.50
73148;PMS7003;61346;48.930;2.266;2022-07-01T02:35:40;4.00;4.00;3.00
73148;PMS7003;61346;48.930;2.266;2022-07-01T02:38:06;4.50;4.50;3.75
73148;PMS7003;61346;48.930;2.266;2022-07-01T02:40:34;5.00;4.00;4.00
73148;PMS7003;61346;48.930;2.266;2022-07-01T02:43:03;5.00;5.00;4.00
73148;PMS7003;61346;48.930;2.266;2022-07-01T02:45:29;6.00;5.75;4.00
73148;PMS7003;61346;48.930;2.266;2022-07-01T02:47:54;5.25;5.25;5.00
73148;PMS7003;61346;48.930;2.266;2022-07-01T02:50:20;6.00;5.00;4.00
73148;PMS7003;61346;48.930;2.266;2022-07-01T02:52:45;4.75;4.75;3.25
73148;PMS7003;61346;48.930;2.266;2022-07-01T02:55:12;4.00;4.00;4.00
73148;PMS7003;61346;48.930;2.266;2022-07-01T02:57:39;7.00;5.00;4.00
73148;PMS7003;61346;48.930;2.266;2022-07-01T03:00:07;5.25;4.25;3.25
73148;PMS7003;61346;48.930;2.266;2022-07-01T03:02:37;5.75;5.00;4.00
73148;PMS7003;61346;48.930;2.266;2022-07-01T03:05:03;6.50;5.25;4.00
73148;PMS7003;61346;48.930;2.266;2022-07-01T03:07:29;5.75;5.75;4.00
73148;PMS7003;61346;48.930;2.266;2022-07-01T03:09:55;4.75;4.25;3.25
73148;PMS7003;61346;48.930;2.266;2022-07-01T03:12:20;5.50;4.50;3.00
73148;PMS7003;61346;48.930;2.266;2022-07-01T03:14:58;4.00;3.50;3.00
73148;PMS7003;61346;48.930;2.266;2022-07-01T03:17:25;8.50;6.25;4.75
73148;PMS7003;61346;48.930;2.266;2022-07-01T03:19:52;5.25;5.00;4.00
73148;PMS7003;61346;48.930;2.266;2022-07-01T03:22:19;6.75;4.75;3.75
73148;PMS7003;61346;48.930;2.266;2022-07-01T03:24:45;6.00;5.00;4.00
73148;PMS7003;61346;48.930;2.266;2022-07-01T03:27:12;7.25;4.75;4.00
73148;PMS7003;61346;48.930;2.266;2022-07-01T03:29:37;5.00;5.00;4.00
73148;PMS7003;61346;48.930;2.266;2022-07-01T03:32:03;3.00;3.00;2.50
73148;PMS7003;61346;48.930;2.266;2022-07-01T03:34:28;3.75;3.75;2.75
73148;PMS7003;61346;48.930;2.266;2022-07-01T03:36:54;4.25;4.25;3.25
73148;PMS7003;61346;48.930;2.266;2022-07-01T03:39:19;4.00;3.00;3.00
73148;PMS7003;61346;48.930;2.266;2022-07-01T03:41:44;4.25;4.25;3.00
73148;PMS7003;61346;48.930;2.266;2022-07-01T03:44:10;5.00;4.00;3.00
73148;PMS7003;61346;48.930;2.266;2022-07-01T03:46:36;4.50;4.50;4.00
73148;PMS7003;61346;48.930;2.266;2022-07-01T03:49:02;4.00;4.00;3.00
73148;PMS7003;61346;48.930;2.266;2022-07-01T03:51:29;4.00;4.00;4.00
73148;PMS7003;61346;48.930;2.266;2022-07-01T03:53:54;4.00;4.00;3.00
73148;PMS7003;61346;48.930;2.266;2022-07-01T03:56:41;4.75;3.00;3.00
73148;PMS7003;61346;48.930;2.266;2022-07-01T03:59:07;3.50;3.50;3.00
73148;PMS7003;61346;48.930;2.266;2022-07-01T04:01:32;3.00;2.75;2.00
73148;PMS7003;61346;48.930;2.266;2022-07-01T04:03:57;4.00;3.00;3.00
73148;PMS7003;61346;48.930;2.266;2022-07-01T04:06:23;3.00;3.00;2.75
73148;PMS7003;61346;48.930;2.266;2022-07-01T04:08:48;3.75;3.75;3.00
73148;PMS7003;61346;48.930;2.266;2022-07-01T04:11:15;3.00;2.50;2.00
73148;PMS7003;61346;48.930;2.266;2022-07-01T04:13:41;2.75;1.25;1.00
73148;PMS7003;61346;48.930;2.266;2022-07-01T04:16:06;2.00;2.00;2.00
73148;PMS7003;61346;48.930;2.266;2022-07-01T04:18:32;2.00;2.00;1.75
73148;PMS7003;61346;48.930;2.266;2022-07-01T04:20:58;2.75;2.75;2.50
73148;PMS7003;61346;48.930;2.266;2022-07-01T04:23:42;2.50;2.50;2.00
73148;PMS7003;61346;48.930;2.266;2022-07-01T04:26:08;2.00;1.00;1.00
73148;PMS7003;61346;48.930;2.266;2022-07-01T04:28:34;4.00;2.50;2.00
73148;PMS7003;61346;48.930;2.266;2022-07-01T04:30:59;3.00;3.00;2.00
73148;PMS7003;61346;48.930;2.266;2022-07-01T04:33:25;2.50;2.50;2.00
73148;PMS7003;61346;48.930;2.266;2022-07-01T04:35:51;3.75;3.00;2.00
73148;PMS7003;61346;48.930;2.266;2022-07-01T04:38:16;4.00;2.50;2.00
73148;PMS7003;61346;48.930;2.266;2022-07-01T04:40:41;3.00;3.00;3.00
73148;PMS7003;61346;48.930;2.266;2022-07-01T04:43:27;1.50;1.50;1.50
73148;PMS7003;61346;48.930;2.266;2022-07-01T04:45:53;3.00;3.00;2.25
73148;PMS7003;61346;48.930;2.266;2022-07-01T04:48:18;2.75;2.75;2.50
73148;PMS7003;61346;48.930;2.266;2022-07-01T04:50:43;2.25;2.00;2.00
73148;PMS7003;61346;48.930;2.266;2022-07-01T04:53:09;3.00;2.00;2.00
73148;PMS7003;61346;48.930;2.266;2022-07-01T04:55:34;3.75;3.00;2.00
73148;PMS7003;61346;48.930;2.266;2022-07-01T04:58:00;3.00;3.00;2.75
73148;PMS7003;61346;48.930;2.266;2022-07-01T05:00:25;3.00;3.00;2.25
73148;PMS7003;61346;48.930;2.266;2022-07-01T05:02:50;4.00;3.00;2.75
73148;PMS7003;61346;48.930;2.266;2022-07-01T05:05:16;4.50;3.25;3.00
73148;PMS7003;61346;48.930;2.266;2022-07-01T05:07:41;3.25;3.25;3.00
73148;PMS7003;61346;48.930;2.266;2022-07-01T05:10:07;3.00;3.00;2.25
73148;PMS7003;61346;48.930;2.266;2022-07-01T05:12:33;5.00;4.00;3.25
73148;PMS7003;61346;48.930;2.266;2022-07-01T05:14:59;6.00;6.00;5.00
73148;PMS7003;61346;48.930;2.266;2022-07-01T05:17:24;4.75;4.75;3.75
73148;PMS7003;61346;48.930;2.266;2022-07-01T05:20:10;6.00;6.00;5.00
73148;PMS7003;61346;48.930;2.266;2022-07-01T05:22:54;7.25;7.00;5.50
73148;PMS7003;61346;48.930;2.266;2022-07-01T05:25:20;5.00;4.00;3.00
73148;PMS7003;61346;48.930;2.266;2022-07-01T05:27:45;6.50;5.00;4.25
73148;PMS7003;61346;48.930;2.266;2022-07-01T05:30:11;4.50;4.50;3.50
73148;PMS7003;61346;48.930;2.266;2022-07-01T05:32:37;4.75;4.75;3.75
73148;PMS7003;61346;48.930;2.266;2022-07-01T05:35:02;5.00;5.00;3.00
73148;PMS7003;61346;48.930;2.266;2022-07-01T05:37:28;5.50;5.50;4.50
73148;PMS7003;61346;48.930;2.266;2022-07-01T05:39:53;7.25;7.25;6.00
73148;PMS7003;61346;48.930;2.266;2022-07-01T05:42:18;7.75;7.50;6.00
73148;PMS7003;61346;48.930;2.266;2022-07-01T05:44:44;9.25;6.00;5.00
73148;PMS7003;61346;48.930;2.266;2022-07-01T05:47:09;5.00;5.00;4.00
73148;PMS7003;61346;48.930;2.266;2022-07-01T05:49:34;4.75;4.75;4.00
73148;PMS7003;61346;48.930;2.266;2022-07-01T05:52:00;6.50;5.25;4.00
73148;PMS7003;61346;48.930;2.266;2022-07-01T05:54:25;6.25;6.25;4.00
73148;PMS7003;61346;48.930;2.266;2022-07-01T05:56:51;6.00;4.75;4.00
73148;PMS7003;61346;48.930;2.266;2022-07-01T05:59:16;6.50;5.50;4.75
73148;PMS7003;61346;48.930;2.266;2022-07-01T06:01:41;4.50;4.50;4.00
73148;PMS7003;61346;48.930;2.266;2022-07-01T06:04:07;7.00;5.00;4.00
73148;PMS7003;61346;48.930;2.266;2022-07-01T06:06:32;5.00;5.00;4.00
73148;PMS7003;61346;48.930;2.266;2022-07-01T06:08:58;5.25;4.75;4.00
73148;PMS7003;61346;48.930;2.266;2022-07-01T06:11:24;5.25;4.50;3.75
73148;PMS7003;61346;48.930;2.266;2022-07-01T06:13:51;3.25;3.00;2.75
73148;PMS7003;61346;48.930;2.266;2022-07-01T06:16:17;3.50;3.50;3.00
73148;PMS7003;61346;48.930;2.266;2022-07-01T06:18:43;6.50;4.00;3.00
73148;PMS7003;61346;48.930;2.266;2022-07-01T06:21:08;2.75;2.75;2.00
73148;PMS7003;61346;48.930;2.266;2022-07-01T06:23:34;3.50;3.00;2.00
73148;PMS7003;61346;48.930;2.266;2022-07-01T06:25:59;2.25;2.25;2.00
73148;PMS7003;61346;48.930;2.266;2022-07-01T06:28:24;2.00;2.00;1.50
73148;PMS7003;61346;48.930;2.266;2022-07-01T06:30:54;2.00;2.00;2.00
73148;PMS7003;61346;48.930;2.266;2022-07-01T06:33:20;4.00;3.00;2.25
73148;PMS7003;61346;48.930;2.266;2022-07-01T06:35:46;2.50;2.50;2.00
73148;PMS7003;61346;48.930;2.266;2022-07-01T06:38:11;2.00;2.00;2.00
73148;PMS7003;61346;48.930;2.266;2022-07-01T06:40:36;5.25;3.00;3.00
73148;PMS7003;61346;48.930;2.266;2022-07-01T06:43:02;5.25;3.75;2.50
73148;PMS7003;61346;48.930;2.266;2022-07-01T06:45:27;2.00;2.00;2.00
73148;PMS7003;61346;48.930;2.266;2022-07-01T06:47:52;3.50;3.50;3.00
73148;PMS7003;61346;48.930;2.266;2022-07-01T06:50:18;4.00;3.00;2.00
73148;PMS7003;61346;48.930;2.266;2022-07-01T06:52:43;2.25;1.25;1.00
73148;PMS7003;61346;48.930;2.266;2022-07-01T06:55:09;2.00;2.00;2.00
73148;PMS7003;61346;48.930;2.266;2022-07-01T06:57:34;3.50;2.00;1.00
73148;PMS7003;61346;48.930;2.266;2022-07-01T07:00:00;1.75;1.75;1.00
73148;PMS7003;61346;48.930;2.266;2022-07-01T07:02:25;2.25;2.00;2.00
73148;PMS7003;61346;48.930;2.266;2022-07-01T07:04:50;4.50;3.75;3.00
73148;PMS7003;61346;48.930;2.266;2022-07-01T07:07:22;1.00;1.00;1.00
73148;PMS7003;61346;48.930;2.266;2022-07-01T07:09:47;1.00;1.00;1.00
73148;PMS7003;61346;48.930;2.266;2022-07-01T07:12:12;3.00;3.00;2.00
73148;PMS7003;61346;48.930;2.266;2022-07-01T07:14:38;1.50;1.50;1.00
73148;PMS7003;61346;48.930;2.266;2022-07-01T07:17:03;3.75;1.00;0.25
73148;PMS7003;61346;48.930;2.266;2022-07-01T07:19:29;1.50;1.00;1.00
73148;PMS7003;61346;48.930;2.266;2022-07-01T07:21:54;2.50;1.00;1.00
73148;PMS7003;61346;48.930;2.266;2022-07-01T07:24:21;0.25;0.25;0.25
73148;PMS7003;61346;48.930;2.266;2022-07-01T07:26:47;1.50;1.00;1.00
73148;PMS7003;61346;48.930;2.266;2022-07-01T07:29:13;1.00;1.00;0.00
73148;PMS7003;61346;48.930;2.266;2022-07-01T07:31:40;0.75;0.00;0.00
73148;PMS7003;61346;48.930;2.266;2022-07-01T07:34:06;2.25;1.00;1.00
73148;PMS7003;61346;48.930;2.266;2022-07-01T07:36:31;0.50;0.50;0.25
73148;PMS7003;61346;48.930;2.266;2022-07-01T07:38:57;1.25;1.00;0.00
73148;PMS7003;61346;48.930;2.266;2022-07-01T07:41:23;0.25;0.00;0.00
73148;PMS7003;61346;48.930;2.266;2022-07-01T07:43:48;1.00;1.00;0.75
73148;PMS7003;61346;48.930;2.266;2022-07-01T07:46:14;1.00;1.00;1.00
73148;PMS7003;61346;48.930;2.266;2022-07-01T07:48:42;1.00;1.00;1.00
73148;PMS7003;61346;48.930;2.266;2022-07-01T07:51:08;0.00;0.00;0.00
73148;PMS7003;61346;48.930;2.266;2022-07-01T07:53:36;1.25;0.00;0.00
73148;PMS7003;61346;48.930;2.266;2022-07-01T07:56:02;1.00;1.00;1.00
73148;PMS7003;61346;48.930;2.266;2022-07-01T07:58:27;1.75;1.00;0.25
73148;PMS7003;61346;48.930;2.266;2022-07-01T08:00:53;0.50;0.00;0.00
73148;PMS7003;61346;48.930;2.266;2022-07-01T08:03:18;0.50;0.50;0.00
73148;PMS7003;61346;48.930;2.266;2022-07-01T08:05:43;2.00;1.00;0.75
73148;PMS7003;61346;48.930;2.266;2022-07-01T08:08:09;0.75;0.75;0.75
73148;PMS7003;61346;48.930;2.266;2022-07-01T08:10:34;0.00;0.00;0.00
73148;PMS7003;61346;48.930;2.266;2022-07-01T08:13:00;0.50;0.50;0.50
73148;PMS7003;61346;48.930;2.266;2022-07-01T08:15:29;0.00;0.00;0.00
73148;PMS7003;61346;48.930;2.266;2022-07-01T08:17:56;2.00;1.00;0.00
73148;PMS7003;61346;48.930;2.266;2022-07-01T08:20:21;0.00;0.00;0.00
73148;PMS7003;61346;48.930;2.266;2022-07-01T08:22:47;2.75;0.75;0.25
73148;PMS7003;61346;48.930;2.266;2022-07-01T08:25:13;0.25;0.25;0.00
73148;PMS7003;61346;48.930;2.266;2022-07-01T08:27:38;0.00;0.00;0.00
73148;PMS7003;61346;48.930;2.266;2022-07-01T08:30:05;1.00;1.00;1.00
73148;PMS7003;61346;48.930;2.266;2022-07-01T08:32:31;2.00;1.00;0.25
73148;PMS7003;61346;48.930;2.266;2022-07-01T08:34:56;2.75;0.75;0.75
73148;PMS7003;61346;48.930;2.266;2022-07-01T08:37:22;0.00;0.00;0.00
73148;PMS7003;61346;48.930;2.266;2022-07-01T08:39:48;0.50;0.50;0.50
73148;PMS7003;61346;48.930;2.266;2022-07-01T08:42:13;0.00;0.00;0.00
73148;PMS7003;61346;48.930;2.266;2022-07-01T08:44:39;2.00;0.00;0.00
73148;PMS7003;61346;48.930;2.266;2022-07-01T08:47:04;1.50;0.00;0.00
73148;PMS7003;61346;48.930;2.266;2022-07-01T08:49:30;2.25;0.00;0.00
73148;PMS7003;61346;48.930;2.266;2022-07-01T08:51:56;0.00;0.00;0.00
73148;PMS7003;61346;48.930;2.266;2022-07-01T08:54:21;0.00;0.00;0.00
73148;PMS7003;61346;48.930;2.266;2022-07-01T08:56:47;1.00;1.00;1.00
73148;PMS7003;61346;48.930;2.266;2022-07-01T08:59:21;0.00;0.00;0.00
73148;PMS7003;61346;48.930;2.266;2022-07-01T09:01:54;0.25;0.25;0.25
73148;PMS7003;61346;48.930;2.266;2022-07-01T09:04:21;0.00;0.00;0.00
73148;PMS7003;61346;48.930;2.266;2022-07-01T09:06:47;2.75;0.00;0.00
73148;PMS7003;61346;48.930;2.266;2022-07-01T09:09:14;0.50;0.50;0.00
73148;PMS7003;61346;48.930;2.266;2022-07-01T09:11:59;0.25;0.00;0.00
73148;PMS7003;61346;48.930;2.266;2022-07-01T09:14:25;1.00;1.00;1.00
73148;PMS7003;61346;48.930;2.266;2022-07-01T09:16:54;0.00;0.00;0.00
73148;PMS7003;61346;48.930;2.266;2022-07-01T09:19:24;0.00;0.00;0.00
73148;PMS7003;61346;48.930;2.266;2022-07-01T09:21:52;0.75;0.75;0.00
73148;PMS7003;61346;48.930;2.266;2022-07-01T09:26:58;1.50;0.00;0.00
73148;PMS7003;61346;48.930;2.266;2022-07-01T09:29:26;0.75;0.75;0.00
73148;PMS7003;61346;48.930;2.266;2022-07-01T09:31:59;1.00;0.00;0.00
73148;PMS7003;61346;48.930;2.266;2022-07-01T09:34:31;1.75;0.25;0.00
73148;PMS7003;61346;48.930;2.266;2022-07-01T09:37:07;0.00;0.00;0.00
73148;PMS7003;61346;48.930;2.266;2022-07-01T09:39:45;1.50;0.00;0.00
73148;PMS7003;61346;48.930;2.266;2022-07-01T09:42:11;0.00;0.00;0.00
73148;PMS7003;61346;48.930;2.266;2022-07-01T09:47:22;0.00;0.00;0.00
73148;PMS7003;61346;48.930;2.266;2022-07-01T09:49:49;0.00;0.00;0.00
73148;PMS7003;61346;48.930;2.266;2022-07-01T09:52:14;1.50;1.00;0.50
73148;PMS7003;61346;48.930;2.266;2022-07-01T09:54:41;2.00;1.00;0.50
73148;PMS7003;61346;48.930;2.266;2022-07-01T09:57:07;1.25;0.25;0.00
73148;PMS7003;61346;48.930;2.266;2022-07-01T09:59:32;0.00;0.00;0.00
73148;PMS7003;61346;48.930;2.266;2022-07-01T10:01:58;0.00;0.00;0.00
73148;PMS7003;61346;48.930;2.266;2022-07-01T10:04:25;1.00;0.00;0.00
73148;PMS7003;61346;48.930;2.266;2022-07-01T10:09:36;1.00;1.00;0.00
73148;PMS7003;61346;48.930;2.266;2022-07-01T10:12:10;1.00;1.00;0.50
73148;PMS7003;61346;48.930;2.266;2022-07-01T10:14:47;0.00;0.00;0.00
73148;PMS7003;61346;48.930;2.266;2022-07-01T10:17:27;0.00;0.00;0.00
73148;PMS7003;61346;48.930;2.266;2022-07-01T10:20:05;0.25;0.25;0.00
73148;PMS7003;61346;48.930;2.266;2022-07-01T10:22:36;0.00;0.00;0.00
73148;PMS7003;61346;48.930;2.266;2022-07-01T10:28:39;2.25;0.00;0.00
73148;PMS7003;61346;48.930;2.266;2022-07-01T10:31:11;0.00;0.00;0.00
73148;PMS7003;61346;48.930;2.266;2022-07-01T11:07:56;1.00;0.00;0.00
73148;PMS7003;61346;48.930;2.266;2022-07-01T11:10:48;0.50;0.00;0.00
73148;PMS7003;61346;48.930;2.266;2022-07-01T11:16:53;0.00;0.00;0.00
73148;PMS7003;61346;48.930;2.266;2022-07-01T11:23:12;0.50;0.50;0.50
73148;PMS7003;61346;48.930;2.266;2022-07-01T11:25:52;0.00;0.00;0.00
73148;PMS7003;61346;48.930;2.266;2022-07-01T11:28:42;0.25;0.00;0.00
73148;PMS7003;61346;48.930;2.266;2022-07-01T11:31:13;0.25;0.00;0.00
73148;PMS7003;61346;48.930;2.266;2022-07-01T11:33:41;0.00;0.00;0.00
73148;PMS7003;61346;48.930;2.266;2022-07-01T11:36:35;0.00;0.00;0.00
73148;PMS7003;61346;48.930;2.266;2022-07-01T11:39:26;0.00;0.00;0.00
73148;PMS7003;61346;48.930;2.266;2022-07-01T11:41:53;0.00;0.00;0.00
73148;PMS7003;61346;48.930;2.266;2022-07-01T11:44:42;0.00;0.00;0.00
73148;PMS7003;61346;48.930;2.266;2022-07-01T11:47:22;0.50;0.00;0.00
73148;PMS7003;61346;48.930;2.266;2022-07-01T11:50:21;0.00;0.00;0.00
73148;PMS7003;61346;48.930;2.266;2022-07-01T12:00:37;0.00;0.00;0.00
73148;PMS7003;61346;48.930;2.266;2022-07-01T12:03:03;0.00;0.00;0.00
73148;PMS7003;61346;48.930;2.266;2022-07-01T12:05:30;0.00;0.00;0.00
73148;PMS7003;61346;48.930;2.266;2022-07-01T12:07:56;0.00;0.00;0.00
73148;PMS7003;61346;48.930;2.266;2022-07-01T12:10:43;0.00;0.00;0.00
73148;PMS7003;61346;48.930;2.266;2022-07-01T12:13:29;0.00;0.00;0.00
73148;PMS7003;61346;48.930;2.266;2022-07-01T12:15:54;0.00;0.00;0.00
73148;PMS7003;61346;48.930;2.266;2022-07-01T12:18:30;0.00;0.00;0.00
73148;PMS7003;61346;48.930;2.266;2022-07-01T12:20:56;2.00;0.00;0.00
73148;PMS7003;61346;48.930;2.266;2022-07-01T12:23:31;0.00;0.00;0.00
73148;PMS7003;61346;48.930;2.266;2022-07-01T12:26:03;1.00;0.00;0.00
73148;PMS7003;61346;48.930;2.266;2022-07-01T12:28:33;0.00;0.00;0.00
73148;PMS7003;61346;48.930;2.266;2022-07-01T12:31:07;1.25;0.00;0.00
73148;PMS7003;61346;48.930;2.266;2022-07-01T12:33:37;0.50;0.50;0.00
73148;PMS7003;61346;48.930;2.266;2022-07-01T12:36:03;0.00;0.00;0.00
73148;PMS7003;61346;48.930;2.266;2022-07-01T12:38:30;0.00;0.00;0.00
73148;PMS7003;61346;48.930;2.266;2022-07-01T12:40:56;0.00;0.00;0.00
73148;PMS7003;61346;48.930;2.266;2022-07-01T12:43:31;0.00;0.00;0.00
73148;PMS7003;61346;48.930;2.266;2022-07-01T12:45:59;0.00;0.00;0.00
73148;PMS7003;61346;48.930;2.266;2022-07-01T12:48:25;0.00;0.00;0.00
73148;PMS7003;61346;48.930;2.266;2022-07-01T12:50:54;0.00;0.00;0.00
73148;PMS7003;61346;48.930;2.266;2022-07-01T12:53:21;1.00;1.00;0.00
73148;PMS7003;61346;48.930;2.266;2022-07-01T12:55:52;0.00;0.00;0.00
73148;PMS7003;61346;48.930;2.266;2022-07-01T12:58:22;0.00;0.00;0.00
73148;PMS7003;61346;48.930;2.266;2022-07-01T13:00:51;0.00;0.00;0.00
73148;PMS7003;61346;48.930;2.266;2022-07-01T13:03:22;0.00;0.00;0.00
73148;PMS7003;61346;48.930;2.266;2022-07-01T13:05:49;0.00;0.00;0.00
73148;PMS7003;61346;48.930;2.266;2022-07-01T13:08:15;0.25;0.25;0.00
73148;PMS7003;61346;48.930;2.266;2022-07-01T13:10:41;0.00;0.00;0.00
73148;PMS7003;61346;48.930;2.266;2022-07-01T13:13:10;0.25;0.00;0.00
73148;PMS7003;61346;48.930;2.266;2022-07-01T13:15:36;1.50;0.00;0.00
73148;PMS7003;61346;48.930;2.266;2022-07-01T13:18:09;0.00;0.00;0.00
73148;PMS7003;61346;48.930;2.266;2022-07-01T13:20:42;0.00;0.00;0.00
73148;PMS7003;61346;48.930;2.266;2022-07-01T13:23:11;0.00;0.00;0.00
73148;PMS7003;61346;48.930;2.266;2022-07-01T13:25:36;0.00;0.00;0.00
73148;PMS7003;61346;48.930;2.266;2022-07-01T13:28:03;0.00;0.00;0.00
73148;PMS7003;61346;48.930;2.266;2022-07-01T13:30:28;0.25;0.00;0.00
73148;PMS7003;61346;48.930;2.266;2022-07-01T13:32:54;0.00;0.00;0.00
73148;PMS7003;61346;48.930;2.266;2022-07-01T13:35:20;0.00;0.00;0.00
73148;PMS7003;61346;48.930;2.266;2022-07-01T13:37:47;0.00;0.00;0.00
73148;PMS7003;61346;48.930;2.266;2022-07-01T13:40:22;1.50;0.50;0.00
73148;PMS7003;61346;48.930;2.266;2022-07-01T13:42:47;0.00;0.00;0.00
73148;PMS7003;61346;48.930;2.266;2022-07-01T13:45:13;0.00;0.00;0.00
73148;PMS7003;61346;48.930;2.266;2022-07-01T13:47:38;0.00;0.00;0.00
73148;PMS7003;61346;48.930;2.266;2022-07-01T13:50:04;0.00;0.00;0.00
73148;PMS7003;61346;48.930;2.266;2022-07-01T13:52:30;0.50;0.00;0.00
73148;PMS7003;61346;48.930;2.266;2022-07-01T13:54:56;0.00;0.00;0.00
73148;PMS7003;61346;48.930;2.266;2022-07-01T13:57:25;0.00;0.00;0.00
73148;PMS7003;61346;48.930;2.266;2022-07-01T13:59:51;0.00;0.00;0.00
73148;PMS7003;61346;48.930;2.266;2022-07-01T14:02:17;0.00;0.00;0.00
73148;PMS7003;61346;48.930;2.266;2022-07-01T14:04:44;2.00;1.00;1.00
73148;PMS7003;61346;48.930;2.266;2022-07-01T14:07:18;0.00;0.00;0.00
73148;PMS7003;61346;48.930;2.266;2022-07-01T14:09:44;1.00;0.00;0.00
73148;PMS7003;61346;48.930;2.266;2022-07-01T14:12:38;0.00;0.00;0.00
73148;PMS7003;61346;48.930;2.266;2022-07-01T14:15:06;1.50;0.00;0.00
73148;PMS7003;61346;48.930;2.266;2022-07-01T14:17:35;0.00;0.00;0.00
73148;PMS7003;61346;48.930;2.266;2022-07-01T14:20:02;0.00;0.00;0.00
73148;PMS7003;61346;48.930;2.266;2022-07-01T14:22:31;0.00;0.00;0.00
73148;PMS7003;61346;48.930;2.266;2022-07-01T14:24:57;0.00;0.00;0.00
73148;PMS7003;61346;48.930;2.266;2022-07-01T14:50:05;0.00;0.00;0.00
73148;PMS7003;61346;48.930;2.266;2022-07-01T15:08:33;0.00;0.00;0.00
73148;PMS7003;61346;48.930;2.266;2022-07-01T16:05:32;1.00;1.00;0.00
73148;PMS7003;61346;48.930;2.266;2022-07-01T16:07:59;0.00;0.00;0.00
73148;PMS7003;61346;48.930;2.266;2022-07-01T16:13:52;0.00;0.00;0.00
73148;PMS7003;61346;48.930;2.266;2022-07-01T16:17:04;0.00;0.00;0.00
73148;PMS7003;61346;48.930;2.266;2022-07-01T16:23:18;0.00;0.00;0.00
73148;PMS7003;61346;48.930;2.266;2022-07-01T16:25:52;0.00;0.00;0.00
73148;PMS7003;61346;48.930;2.266;2022-07-01T16:28:21;0.00;0.00;0.00
73148;PMS7003;61346;48.930;2.266;2022-07-01T16:30:51;0.50;0.00;0.00
73148;PMS7003;61346;48.930;2.266;2022-07-01T16:33:50;0.00;0.00;0.00
73148;PMS7003;61346;48.930;2.266;2022-07-01T16:43:44;0.00;0.00;0.00
73148;PMS7003;61346;48.930;2.266;2022-07-01T16:46:30;0.00;0.00;0.00
73148;PMS7003;61346;48.930;2.266;2022-07-01T16:49:24;0.00;0.00;0.00
73148;PMS7003;61346;48.930;2.266;2022-07-01T16:55:08;0.00;0.00;0.00
73148;PMS7003;61346;48.930;2.266;2022-07-01T17:05:35;0.00;0.00;0.00
73148;PMS7003;61346;48.930;2.266;2022-07-01T17:08:34;0.00;0.00;0.00
73148;PMS7003;61346;48.930;2.266;2022-07-01T17:20:36;0.00;0.00;0.00
73148;PMS7003;61346;48.930;2.266;2022-07-01T17:29:59;1.00;0.00;0.00
73148;PMS7003;61346;48.930;2.266;2022-07-01T17:33:13;0.00;0.00;0.00
73148;PMS7003;61346;48.930;2.266;2022-07-01T17:35:50;0.00;0.00;0.00
73148;PMS7003;61346;48.930;2.266;2022-07-01T17:38:27;0.00;0.00;0.00
73148;PMS7003;61346;48.930;2.266;2022-07-01T17:41:09;0.00;0.00;0.00
73148;PMS7003;61346;48.930;2.266;2022-07-01T17:43:52;0.00;0.00;0.00
73148;PMS7003;61346;48.930;2.266;2022-07-01T17:46:22;1.00;1.00;0.00